sensor_id;sensor_type;location;lat;lon;timestamp;noise_LAeq;noise_LA_min;noise_LA_max;noise_LA01;noise_LA95
56099;Laerm;44276;49.534;6.378;2023-09-18T00:01:00;43.35;42.03;44.62;;
56099;Laerm;44276;49.534;6.378;2023-09-18T00:03:28;43.45;42.29;45.30;;
56099;Laerm;44276;49.534;6.378;2023-09-18T00:05:56;50.06;43.24;61.59;;
56099;Laerm;44276;49.534;6.378;2023-09-18T00:08:25;47.82;43.04;56.73;;
56099;Laerm;44276;49.534;6.378;2023-09-18T00:10:54;48.96;43.63;66.15;;
56099;Laerm;44276;49.534;6.378;2023-09-18T00:13:23;44.13;41.61;52.80;;
56099;Laerm;44276;49.534;6.378;2023-09-18T00:15:55;43.44;41.75;45.01;;
56099;Laerm;44276;49.534;6.378;2023-09-18T00:18:28;43.39;41.96;44.73;;
56099;Laerm;44276;49.534;6.378;2023-09-18T00:20:56;43.38;42.09;44.62;;
56099;Laerm;44276;49.534;6.378;2023-09-18T00:23:25;43.41;41.96;44.43;;
56099;Laerm;44276;49.534;6.378;2023-09-18T00:25:53;43.41;42.16;44.39;;
56099;Laerm;44276;49.534;6.378;2023-09-18T00:28:22;43.46;42.09;44.94;;
56099;Laerm;44276;49.534;6.378;2023-09-18T00:30:53;46.09;42.16;58.39;;
56099;Laerm;44276;49.534;6.378;2023-09-18T00:33:24;46.77;42.82;60.49;;
56099;Laerm;44276;49.534;6.378;2023-09-18T00:35:54;50.13;42.65;64.64;;
56099;Laerm;44276;49.534;6.378;2023-09-18T00:38:22;44.39;41.96;54.78;;
56099;Laerm;44276;49.534;6.378;2023-09-18T00:40:51;43.67;42.22;56.08;;
56099;Laerm;44276;49.534;6.378;2023-09-18T00:43:19;44.59;41.89;55.13;;
56099;Laerm;44276;49.534;6.378;2023-09-18T00:45:48;44.56;42.47;58.96;;
56099;Laerm;44276;49.534;6.378;2023-09-18T00:48:17;43.74;42.29;49.04;;
56099;Laerm;44276;49.534;6.378;2023-09-18T00:50:46;43.58;42.22;46.25;;
56099;Laerm;44276;49.534;6.378;2023-09-18T00:53:21;43.63;42.35;49.81;;
56099;Laerm;44276;49.534;6.378;2023-09-18T00:55:53;43.55;42.16;50.63;;
56099;Laerm;44276;49.534;6.378;2023-09-18T00:58:22;43.53;42.22;44.76;;
56099;Laerm;44276;49.534;6.378;2023-09-18T01:00:51;43.60;42.29;49.58;;
56099;Laerm;44276;49.534;6.378;2023-09-18T01:03:21;43.70;42.35;56.75;;
56099;Laerm;44276;49.534;6.378;2023-09-18T01:05:54;43.71;42.22;58.45;;
56099;Laerm;44276;49.534;6.378;2023-09-18T01:08:24;43.58;42.16;44.83;;
56099;Laerm;44276;49.534;6.378;2023-09-18T01:10:59;43.54;42.22;44.80;;
56099;Laerm;44276;49.534;6.378;2023-09-18T01:13:39;43.59;42.29;45.54;;
56099;Laerm;44276;49.534;6.378;2023-09-18T01:16:18;43.57;42.16;44.62;;
56099;Laerm;44276;49.534;6.378;2023-09-18T01:18:49;43.54;42.19;44.58;;
56099;Laerm;44276;49.534;6.378;2023-09-18T01:21:19;43.56;42.41;44.58;;
56099;Laerm;44276;49.534;6.378;2023-09-18T01:23:49;43.71;42.29;47.30;;
56099;Laerm;44276;49.534;6.378;2023-09-18T01:26:18;43.54;42.29;44.65;;
56099;Laerm;44276;49.534;6.378;2023-09-18T01:28:46;43.55;42.16;44.58;;
56099;Laerm;44276;49.534;6.378;2023-09-18T01:31:14;43.55;42.09;44.62;;
56099;Laerm;44276;49.534;6.378;2023-09-18T01:33:46;43.71;42.22;48.15;;
56099;Laerm;44276;49.534;6.378;2023-09-18T01:36:17;43.57;42.03;44.87;;
56099;Laerm;44276;49.534;6.378;2023-09-18T01:38:50;43.59;42.16;45.11;;
56099;Laerm;44276;49.534;6.378;2023-09-18T01:41:19;43.62;42.35;45.89;;
56099;Laerm;44276;49.534;6.378;2023-09-18T01:43:47;43.60;42.03;45.17;;
56099;Laerm;44276;49.534;6.378;2023-09-18T01:46:16;43.76;42.29;48.74;;
56099;Laerm;44276;49.534;6.378;2023-09-18T01:48:46;43.59;42.16;44.73;;
56099;Laerm;44276;49.534;6.378;2023-09-18T01:51:15;43.70;42.22;47.65;;
56099;Laerm;44276;49.534;6.378;2023-09-18T01:53:43;43.58;42.41;44.62;;
56099;Laerm;44276;49.534;6.378;2023-09-18T01:56:13;43.69;42.35;46.43;;
56099;Laerm;44276;49.534;6.378;2023-09-18T01:58:41;43.59;42.35;44.76;;
56099;Laerm;44276;49.534;6.378;2023-09-18T02:01:10;43.58;42.35;44.65;;
56099;Laerm;44276;49.534;6.378;2023-09-18T02:03:38;43.61;42.03;44.94;;
56099;Laerm;44276;49.534;6.378;2023-09-18T02:06:28;43.59;42.35;44.65;;
56099;Laerm;44276;49.534;6.378;2023-09-18T02:08:57;43.62;42.41;44.87;;
56099;Laerm;44276;49.534;6.378;2023-09-18T02:11:27;43.58;42.35;44.73;;
56099;Laerm;44276;49.534;6.378;2023-09-18T02:13:55;43.62;42.22;44.69;;
56099;Laerm;44276;49.534;6.378;2023-09-18T02:16:24;43.61;42.41;44.80;;
56099;Laerm;44276;49.534;6.378;2023-09-18T02:18:55;43.59;42.35;44.62;;
56099;Laerm;44276;49.534;6.378;2023-09-18T02:21:23;43.64;41.96;44.73;;
56099;Laerm;44276;49.534;6.378;2023-09-18T02:23:53;43.59;42.16;44.87;;
56099;Laerm;44276;49.534;6.378;2023-09-18T02:26:23;43.58;42.35;44.76;;
56099;Laerm;44276;49.534;6.378;2023-09-18T02:28:54;43.61;42.35;44.97;;
56099;Laerm;44276;49.534;6.378;2023-09-18T02:31:22;43.67;42.35;46.66;;
56099;Laerm;44276;49.534;6.378;2023-09-18T02:33:51;43.61;42.41;44.80;;
56099;Laerm;44276;49.534;6.378;2023-09-18T02:36:19;43.60;42.22;44.76;;
56099;Laerm;44276;49.534;6.378;2023-09-18T02:38:47;43.57;42.41;44.87;;
56099;Laerm;44276;49.534;6.378;2023-09-18T02:41:16;43.61;42.22;45.20;;
56099;Laerm;44276;49.534;6.378;2023-09-18T02:43:44;43.63;42.22;45.17;;
56099;Laerm;44276;49.534;6.378;2023-09-18T02:46:14;43.82;42.35;46.80;;
56099;Laerm;44276;49.534;6.378;2023-09-18T02:48:42;43.63;42.53;44.87;;
56099;Laerm;44276;49.534;6.378;2023-09-18T02:51:10;43.61;42.29;44.94;;
56099;Laerm;44276;49.534;6.378;2023-09-18T02:53:38;43.58;42.22;44.69;;
56099;Laerm;44276;49.534;6.378;2023-09-18T02:56:06;43.63;42.35;45.01;;
56099;Laerm;44276;49.534;6.378;2023-09-18T02:58:34;43.63;42.29;44.83;;
56099;Laerm;44276;49.534;6.378;2023-09-18T03:01:02;43.72;42.47;47.44;;
56099;Laerm;44276;49.534;6.378;2023-09-18T03:03:33;43.65;42.16;45.33;;
56099;Laerm;44276;49.534;6.378;2023-09-18T03:06:03;43.97;42.41;50.17;;
56099;Laerm;44276;49.534;6.378;2023-09-18T03:08:33;43.63;42.53;44.73;;
56099;Laerm;44276;49.534;6.378;2023-09-18T03:11:02;43.71;42.42;44.80;;
56099;Laerm;44276;49.534;6.378;2023-09-18T03:13:31;43.64;42.35;44.65;;
56099;Laerm;44276;49.534;6.378;2023-09-18T03:15:59;43.68;42.41;45.69;;
56099;Laerm;44276;49.534;6.378;2023-09-18T03:18:27;43.72;42.35;45.91;;
56099;Laerm;44276;49.534;6.378;2023-09-18T03:20:57;43.73;42.35;45.62;;
56099;Laerm;44276;49.534;6.378;2023-09-18T03:23:25;43.74;42.41;47.14;;
56099;Laerm;44276;49.534;6.378;2023-09-18T03:25:53;43.71;42.29;45.11;;
56099;Laerm;44276;49.534;6.378;2023-09-18T03:28:21;43.70;42.29;45.75;;
56099;Laerm;44276;49.534;6.378;2023-09-18T03:30:50;43.65;42.16;44.97;;
56099;Laerm;44276;49.534;6.378;2023-09-18T03:33:18;43.67;42.16;45.17;;
56099;Laerm;44276;49.534;6.378;2023-09-18T03:35:48;43.66;42.35;44.76;;
56099;Laerm;44276;49.534;6.378;2023-09-18T03:38:18;43.81;42.29;47.12;;
56099;Laerm;44276;49.534;6.378;2023-09-18T03:40:47;43.86;42.29;45.83;;
56099;Laerm;44276;49.534;6.378;2023-09-18T03:43:16;43.84;42.47;46.86;;
56099;Laerm;44276;49.534;6.378;2023-09-18T03:45:44;43.66;42.35;45.45;;
56099;Laerm;44276;49.534;6.378;2023-09-18T03:48:13;43.69;42.53;44.97;;
56099;Laerm;44276;49.534;6.378;2023-09-18T03:50:41;43.73;42.41;44.87;;
56099;Laerm;44276;49.534;6.378;2023-09-18T03:53:10;43.80;42.35;45.39;;
56099;Laerm;44276;49.534;6.378;2023-09-18T03:55:39;43.69;42.35;45.23;;
56099;Laerm;44276;49.534;6.378;2023-09-18T03:58:07;43.76;42.29;46.43;;
56099;Laerm;44276;49.534;6.378;2023-09-18T04:00:36;43.69;42.22;46.30;;
56099;Laerm;44276;49.534;6.378;2023-09-18T04:03:04;43.71;42.41;45.54;;
56099;Laerm;44276;49.534;6.378;2023-09-18T04:05:32;43.61;42.29;44.87;;
56099;Laerm;44276;49.534;6.378;2023-09-18T04:08:01;43.69;42.29;44.94;;
56099;Laerm;44276;49.534;6.378;2023-09-18T04:10:29;43.69;42.47;45.01;;
56099;Laerm;44276;49.534;6.378;2023-09-18T04:12:58;43.68;42.35;45.33;;
56099;Laerm;44276;49.534;6.378;2023-09-18T04:15:26;43.69;42.47;44.80;;
56099;Laerm;44276;49.534;6.378;2023-09-18T04:17:57;43.83;42.09;48.21;;
56099;Laerm;44276;49.534;6.378;2023-09-18T04:20:25;43.65;42.09;44.87;;
56099;Laerm;44276;49.534;6.378;2023-09-18T04:23:17;43.67;42.35;44.97;;
56099;Laerm;44276;49.534;6.378;2023-09-18T04:25:47;43.62;42.29;44.73;;
56099;Laerm;44276;49.534;6.378;2023-09-18T04:28:18;43.74;42.47;45.20;;
56099;Laerm;44276;49.534;6.378;2023-09-18T04:30:47;43.86;42.35;47.18;;
56099;Laerm;44276;49.534;6.378;2023-09-18T04:33:15;43.74;42.35;45.27;;
56099;Laerm;44276;49.534;6.378;2023-09-18T04:35:44;43.75;42.41;45.89;;
56099;Laerm;44276;49.534;6.378;2023-09-18T04:38:13;43.64;42.35;44.76;;
56099;Laerm;44276;49.534;6.378;2023-09-18T04:40:42;43.70;42.41;45.01;;
56099;Laerm;44276;49.534;6.378;2023-09-18T04:43:10;43.73;42.16;45.69;;
56099;Laerm;44276;49.534;6.378;2023-09-18T04:45:40;43.67;42.29;44.83;;
56099;Laerm;44276;49.534;6.378;2023-09-18T04:48:09;43.67;42.47;44.76;;
56099;Laerm;44276;49.534;6.378;2023-09-18T04:50:38;43.75;42.29;46.93;;
56099;Laerm;44276;49.534;6.378;2023-09-18T04:53:06;43.66;42.41;44.94;;
56099;Laerm;44276;49.534;6.378;2023-09-18T04:55:35;43.72;42.29;46.01;;
56099;Laerm;44276;49.534;6.378;2023-09-18T04:58:05;43.65;42.29;45.31;;
56099;Laerm;44276;49.534;6.378;2023-09-18T05:00:33;43.64;42.22;44.80;;
56099;Laerm;44276;49.534;6.378;2023-09-18T05:03:03;43.69;42.22;45.04;;
56099;Laerm;44276;49.534;6.378;2023-09-18T05:05:33;43.63;42.41;44.69;;
56099;Laerm;44276;49.534;6.378;2023-09-18T05:08:03;43.69;42.16;45.11;;
56099;Laerm;44276;49.534;6.378;2023-09-18T05:10:31;43.64;42.41;45.33;;
56099;Laerm;44276;49.534;6.378;2023-09-18T05:13:00;43.67;41.96;44.90;;
56099;Laerm;44276;49.534;6.378;2023-09-18T05:15:29;43.67;42.41;45.07;;
56099;Laerm;44276;49.534;6.378;2023-09-18T05:17:59;43.70;42.41;44.90;;
56099;Laerm;44276;49.534;6.378;2023-09-18T05:20:30;43.66;42.30;44.76;;
56099;Laerm;44276;49.534;6.378;2023-09-18T05:22:59;43.68;42.03;45.33;;
56099;Laerm;44276;49.534;6.378;2023-09-18T05:25:30;43.75;42.41;45.14;;
56099;Laerm;44276;49.534;6.378;2023-09-18T05:28:00;43.65;42.16;45.04;;
56099;Laerm;44276;49.534;6.378;2023-09-18T05:30:32;43.65;42.35;44.87;;
56099;Laerm;44276;49.534;6.378;2023-09-18T05:33:03;43.68;42.29;45.11;;
56099;Laerm;44276;49.534;6.378;2023-09-18T05:35:35;43.73;42.03;45.54;;
56099;Laerm;44276;49.534;6.378;2023-09-18T05:38:04;43.74;42.09;44.94;;
56099;Laerm;44276;49.534;6.378;2023-09-18T05:40:33;43.64;42.47;44.90;;
56099;Laerm;44276;49.534;6.378;2023-09-18T05:43:01;43.68;42.03;45.20;;
56099;Laerm;44276;49.534;6.378;2023-09-18T05:45:30;43.69;42.53;45.27;;
56099;Laerm;44276;49.534;6.378;2023-09-18T05:47:58;43.65;42.35;44.80;;
56099;Laerm;44276;49.534;6.378;2023-09-18T05:50:35;43.76;42.35;45.51;;
56099;Laerm;44276;49.534;6.378;2023-09-18T05:53:03;43.73;42.47;45.77;;
56099;Laerm;44276;49.534;6.378;2023-09-18T05:55:33;43.79;42.36;45.83;;
56099;Laerm;44276;49.534;6.378;2023-09-18T05:58:02;43.74;42.35;45.91;;
56099;Laerm;44276;49.534;6.378;2023-09-18T06:00:32;43.77;42.53;45.11;;
56099;Laerm;44276;49.534;6.378;2023-09-18T06:03:00;43.73;42.22;45.91;;
56099;Laerm;44276;49.534;6.378;2023-09-18T06:05:29;43.65;42.35;44.73;;
56099;Laerm;44276;49.534;6.378;2023-09-18T06:08:00;43.67;42.53;45.30;;
56099;Laerm;44276;49.534;6.378;2023-09-18T06:10:28;43.67;42.53;44.89;;
56099;Laerm;44276;49.534;6.378;2023-09-18T06:12:57;43.69;42.41;44.90;;
56099;Laerm;44276;49.534;6.378;2023-09-18T06:15:31;43.78;42.35;46.57;;
56099;Laerm;44276;49.534;6.378;2023-09-18T06:18:00;43.67;42.35;44.80;;
56099;Laerm;44276;49.534;6.378;2023-09-18T06:20:29;43.77;42.29;45.33;;
56099;Laerm;44276;49.534;6.378;2023-09-18T06:22:57;43.82;42.35;46.80;;
56099;Laerm;44276;49.534;6.378;2023-09-18T06:25:27;43.71;42.47;45.51;;
56099;Laerm;44276;49.534;6.378;2023-09-18T06:27:55;43.78;42.29;45.57;;
56099;Laerm;44276;49.534;6.378;2023-09-18T06:30:23;43.81;42.41;45.14;;
56099;Laerm;44276;49.534;6.378;2023-09-18T06:32:51;43.88;42.41;49.23;;
56099;Laerm;44276;49.534;6.378;2023-09-18T06:35:20;43.78;42.35;45.30;;
56099;Laerm;44276;49.534;6.378;2023-09-18T06:37:49;43.77;42.16;45.27;;
56099;Laerm;44276;49.534;6.378;2023-09-18T06:40:17;43.77;42.47;45.11;;
56099;Laerm;44276;49.534;6.378;2023-09-18T06:42:47;43.99;42.16;51.44;;
56099;Laerm;44276;49.534;6.378;2023-09-18T06:45:15;43.82;42.41;48.49;;
56099;Laerm;44276;49.534;6.378;2023-09-18T06:47:43;43.86;42.35;47.86;;
56099;Laerm;44276;49.534;6.378;2023-09-18T06:50:11;43.77;42.47;46.59;;
56099;Laerm;44276;49.534;6.378;2023-09-18T06:52:39;44.20;42.59;52.05;;
56099;Laerm;44276;49.534;6.378;2023-09-18T06:55:09;43.97;42.35;48.15;;
56099;Laerm;44276;49.534;6.378;2023-09-18T06:57:37;43.99;42.41;49.32;;
56099;Laerm;44276;49.534;6.378;2023-09-18T07:00:09;43.85;42.09;48.10;;
56099;Laerm;44276;49.534;6.378;2023-09-18T07:02:37;43.80;42.16;46.20;;
56099;Laerm;44276;49.534;6.378;2023-09-18T07:05:06;43.83;42.59;45.60;;
56099;Laerm;44276;49.534;6.378;2023-09-18T07:07:34;43.82;42.59;46.25;;
56099;Laerm;44276;49.534;6.378;2023-09-18T07:10:03;43.79;42.35;46.52;;
56099;Laerm;44276;49.534;6.378;2023-09-18T07:12:32;43.93;42.53;47.02;;
56099;Laerm;44276;49.534;6.378;2023-09-18T07:15:01;43.82;42.71;45.66;;
56099;Laerm;44276;49.534;6.378;2023-09-18T07:17:33;43.88;42.47;48.16;;
56099;Laerm;44276;49.534;6.378;2023-09-18T07:20:04;43.86;42.64;50.92;;
56099;Laerm;44276;49.534;6.378;2023-09-18T07:22:46;43.80;42.22;47.93;;
56099;Laerm;44276;49.534;6.378;2023-09-18T07:25:15;43.76;42.29;45.86;;
56099;Laerm;44276;49.534;6.378;2023-09-18T07:27:44;43.81;42.47;46.15;;
56099;Laerm;44276;49.534;6.378;2023-09-18T07:30:13;43.90;42.53;48.60;;
56099;Laerm;44276;49.534;6.378;2023-09-18T07:32:44;44.28;42.53;56.40;;
56099;Laerm;44276;49.534;6.378;2023-09-18T07:35:13;43.93;42.59;47.61;;
56099;Laerm;44276;49.534;6.378;2023-09-18T07:37:43;43.82;42.53;46.25;;
56099;Laerm;44276;49.534;6.378;2023-09-18T07:40:13;44.19;42.65;54.29;;
56099;Laerm;44276;49.534;6.378;2023-09-18T07:42:43;43.78;42.29;45.33;;
56099;Laerm;44276;49.534;6.378;2023-09-18T07:45:11;44.05;42.41;49.20;;
56099;Laerm;44276;49.534;6.378;2023-09-18T07:47:40;43.88;42.53;46.05;;
56099;Laerm;44276;49.534;6.378;2023-09-18T07:50:10;43.85;42.59;46.45;;
56099;Laerm;44276;49.534;6.378;2023-09-18T07:52:38;43.99;42.41;51.40;;
56099;Laerm;44276;49.534;6.378;2023-09-18T07:55:08;43.89;42.41;47.88;;
56099;Laerm;44276;49.534;6.378;2023-09-18T07:57:36;44.49;42.41;55.70;;
56099;Laerm;44276;49.534;6.378;2023-09-18T08:00:06;43.91;42.59;48.20;;
56099;Laerm;44276;49.534;6.378;2023-09-18T08:02:39;44.05;42.53;52.05;;
56099;Laerm;44276;49.534;6.378;2023-09-18T08:05:09;44.25;42.47;52.17;;
56099;Laerm;44276;49.534;6.378;2023-09-18T08:07:38;44.27;42.65;53.04;;
56099;Laerm;44276;49.534;6.378;2023-09-18T08:10:08;45.30;42.53;61.85;;
56099;Laerm;44276;49.534;6.378;2023-09-18T08:12:37;44.95;42.53;56.15;;
56099;Laerm;44276;49.534;6.378;2023-09-18T08:15:06;43.95;42.53;46.23;;
56099;Laerm;44276;49.534;6.378;2023-09-18T08:17:35;44.26;42.65;49.90;;
56099;Laerm;44276;49.534;6.378;2023-09-18T08:20:09;44.16;42.53;50.17;;
56099;Laerm;44276;49.534;6.378;2023-09-18T08:22:41;43.90;42.53;48.54;;
56099;Laerm;44276;49.534;6.378;2023-09-18T08:25:10;44.72;42.71;54.29;;
56099;Laerm;44276;49.534;6.378;2023-09-18T08:27:40;43.96;42.53;47.58;;
56099;Laerm;44276;49.534;6.378;2023-09-18T08:30:13;43.93;42.47;49.53;;
56099;Laerm;44276;49.534;6.378;2023-09-18T08:32:42;43.95;42.53;49.25;;
56099;Laerm;44276;49.534;6.378;2023-09-18T08:35:13;43.92;42.53;45.80;;
56099;Laerm;44276;49.534;6.378;2023-09-18T08:37:42;43.81;42.71;45.72;;
56099;Laerm;44276;49.534;6.378;2023-09-18T08:40:12;43.84;42.22;49.57;;
56099;Laerm;44276;49.534;6.378;2023-09-18T08:42:46;43.82;42.53;45.30;;
56099;Laerm;44276;49.534;6.378;2023-09-18T08:45:22;43.76;42.41;45.01;;
56099;Laerm;44276;49.534;6.378;2023-09-18T08:47:54;43.82;42.41;45.83;;
56099;Laerm;44276;49.534;6.378;2023-09-18T08:50:24;43.80;42.16;47.74;;
56099;Laerm;44276;49.534;6.378;2023-09-18T08:52:54;43.77;42.29;45.80;;
56099;Laerm;44276;49.534;6.378;2023-09-18T08:55:24;44.05;42.69;49.10;;
56099;Laerm;44276;49.534;6.378;2023-09-18T08:57:54;43.88;42.53;46.50;;
56099;Laerm;44276;49.534;6.378;2023-09-18T09:00:23;43.90;42.53;46.20;;
56099;Laerm;44276;49.534;6.378;2023-09-18T09:02:51;43.82;42.29;45.42;;
56099;Laerm;44276;49.534;6.378;2023-09-18T09:05:23;43.83;42.53;47.06;;
56099;Laerm;44276;49.534;6.378;2023-09-18T09:07:52;44.17;41.89;51.97;;
56099;Laerm;44276;49.534;6.378;2023-09-18T09:10:21;44.07;42.47;48.64;;
56099;Laerm;44276;49.534;6.378;2023-09-18T09:12:53;44.86;42.53;56.74;;
56099;Laerm;44276;49.534;6.378;2023-09-18T09:15:24;45.39;42.41;55.84;;
56099;Laerm;44276;49.534;6.378;2023-09-18T09:18:03;43.95;42.53;49.06;;
56099;Laerm;44276;49.534;6.378;2023-09-18T09:20:35;43.97;42.53;49.20;;
56099;Laerm;44276;49.534;6.378;2023-09-18T09:23:06;44.32;42.59;51.80;;
56099;Laerm;44276;49.534;6.378;2023-09-18T09:25:35;46.54;42.53;63.49;;
56099;Laerm;44276;49.534;6.378;2023-09-18T09:28:06;45.16;42.53;59.59;;
56099;Laerm;44276;49.534;6.378;2023-09-18T09:30:36;44.36;42.76;55.82;;
56099;Laerm;44276;49.534;6.378;2023-09-18T09:33:05;44.01;42.59;51.20;;
56099;Laerm;44276;49.534;6.378;2023-09-18T09:35:38;44.24;42.35;53.31;;
56099;Laerm;44276;49.534;6.378;2023-09-18T09:38:10;43.95;42.53;49.43;;
56099;Laerm;44276;49.534;6.378;2023-09-18T09:40:41;43.89;42.22;49.85;;
56099;Laerm;44276;49.534;6.378;2023-09-18T09:43:12;43.89;42.59;46.23;;
56099;Laerm;44276;49.534;6.378;2023-09-18T09:45:45;44.15;42.35;56.35;;
56099;Laerm;44276;49.534;6.378;2023-09-18T09:48:14;43.94;42.59;48.10;;
56099;Laerm;44276;49.534;6.378;2023-09-18T09:50:48;43.93;42.59;48.39;;
56099;Laerm;44276;49.534;6.378;2023-09-18T09:53:18;44.15;42.59;48.84;;
56099;Laerm;44276;49.534;6.378;2023-09-18T09:55:55;44.55;42.47;54.47;;
56099;Laerm;44276;49.534;6.378;2023-09-18T09:58:27;44.55;42.42;56.41;;
56099;Laerm;44276;49.534;6.378;2023-09-18T10:01:03;43.95;42.47;48.12;;
56099;Laerm;44276;49.534;6.378;2023-09-18T10:03:38;44.03;42.53;49.00;;
56099;Laerm;44276;49.534;6.378;2023-09-18T10:06:11;44.02;42.59;47.18;;
56099;Laerm;44276;49.534;6.378;2023-09-18T10:08:41;43.96;42.47;55.53;;
56099;Laerm;44276;49.534;6.378;2023-09-18T10:11:15;43.91;42.53;49.55;;
56099;Laerm;44276;49.534;6.378;2023-09-18T10:13:47;43.91;42.59;49.00;;
56099;Laerm;44276;49.534;6.378;2023-09-18T10:16:23;43.80;42.41;45.01;;
56099;Laerm;44276;49.534;6.378;2023-09-18T10:19:01;43.83;42.53;46.23;;
56099;Laerm;44276;49.534;6.378;2023-09-18T10:21:41;46.00;42.53;61.78;;
56099;Laerm;44276;49.534;6.378;2023-09-18T10:24:22;45.02;42.35;57.12;;
56099;Laerm;44276;49.534;6.378;2023-09-18T10:26:57;46.30;42.76;61.09;;
56099;Laerm;44276;49.534;6.378;2023-09-18T10:29:26;44.76;42.76;57.04;;
56099;Laerm;44276;49.534;6.378;2023-09-18T10:31:57;45.72;42.82;57.75;;
56099;Laerm;44276;49.534;6.378;2023-09-18T10:34:27;44.56;42.65;54.95;;
56099;Laerm;44276;49.534;6.378;2023-09-18T10:37:01;44.79;42.41;53.96;;
56099;Laerm;44276;49.534;6.378;2023-09-18T10:39:38;46.21;42.35;64.66;;
56099;Laerm;44276;49.534;6.378;2023-09-18T10:42:08;45.82;42.41;58.91;;
56099;Laerm;44276;49.534;6.378;2023-09-18T10:44:37;47.23;42.35;61.52;;
56099;Laerm;44276;49.534;6.378;2023-09-18T10:47:09;49.05;42.09;64.33;;
56099;Laerm;44276;49.534;6.378;2023-09-18T10:49:38;44.98;41.96;56.21;;
56099;Laerm;44276;49.534;6.378;2023-09-18T10:52:11;45.59;41.75;60.31;;
56099;Laerm;44276;49.534;6.378;2023-09-18T10:54:40;45.19;41.89;61.66;;
56099;Laerm;44276;49.534;6.378;2023-09-18T10:57:08;45.81;41.89;59.71;;
56099;Laerm;44276;49.534;6.378;2023-09-18T10:59:44;44.23;41.46;59.12;;
56099;Laerm;44276;49.534;6.378;2023-09-18T11:02:14;43.41;41.22;49.93;;
56099;Laerm;44276;49.534;6.378;2023-09-18T11:04:44;46.08;41.22;62.63;;
56099;Laerm;44276;49.534;6.378;2023-09-18T11:07:23;44.62;41.06;57.40;;
56099;Laerm;44276;49.534;6.378;2023-09-18T11:09:52;43.98;41.22;58.27;;
56099;Laerm;44276;49.534;6.378;2023-09-18T11:12:45;46.08;41.22;60.68;;
56099;Laerm;44276;49.534;6.378;2023-09-18T11:15:26;49.31;41.53;64.51;;
56099;Laerm;44276;49.534;6.378;2023-09-18T11:18:01;50.38;41.14;68.23;;
56099;Laerm;44276;49.534;6.378;2023-09-18T11:20:35;45.80;40.71;62.13;;
56099;Laerm;44276;49.534;6.378;2023-09-18T11:23:17;46.93;40.89;64.04;;
56099;Laerm;44276;49.534;6.378;2023-09-18T11:25:46;44.34;41.03;57.22;;
56099;Laerm;44276;49.534;6.378;2023-09-18T11:28:22;44.90;41.22;58.70;;
56099;Laerm;44276;49.534;6.378;2023-09-18T11:30:53;44.20;41.14;55.14;;
56099;Laerm;44276;49.534;6.378;2023-09-18T11:33:33;43.25;41.38;49.50;;
56099;Laerm;44276;49.534;6.378;2023-09-18T11:36:07;44.29;41.30;57.20;;
56099;Laerm;44276;49.534;6.378;2023-09-18T11:38:53;43.41;41.61;50.56;;
56099;Laerm;44276;49.534;6.378;2023-09-18T11:41:28;44.08;41.53;61.57;;
56099;Laerm;44276;49.534;6.378;2023-09-18T11:44:33;46.12;41.82;60.83;;
56099;Laerm;44276;49.534;6.378;2023-09-18T11:47:10;44.59;41.75;56.32;;
56099;Laerm;44276;49.534;6.378;2023-09-18T11:49:49;44.72;41.22;55.03;;
56099;Laerm;44276;49.534;6.378;2023-09-18T11:52:23;43.26;41.46;51.47;;
56099;Laerm;44276;49.534;6.378;2023-09-18T11:54:57;43.40;41.46;49.77;;
56099;Laerm;44276;49.534;6.378;2023-09-18T11:57:26;45.41;41.38;59.95;;
56099;Laerm;44276;49.534;6.378;2023-09-18T11:59:56;44.43;41.14;59.94;;
56099;Laerm;44276;49.534;6.378;2023-09-18T12:02:38;47.01;41.06;64.38;;
56099;Laerm;44276;49.534;6.378;2023-09-18T12:05:11;43.27;41.22;50.49;;
56099;Laerm;44276;49.534;6.378;2023-09-18T12:07:44;47.64;40.89;65.34;;
56099;Laerm;44276;49.534;6.378;2023-09-18T12:10:15;45.95;40.71;63.14;;
56099;Laerm;44276;49.534;6.378;2023-09-18T12:12:44;46.95;40.71;61.12;;
56099;Laerm;44276;49.534;6.378;2023-09-18T12:15:14;46.94;40.98;64.82;;
56099;Laerm;44276;49.534;6.378;2023-09-18T12:17:42;46.88;40.43;61.27;;
56099;Laerm;44276;49.534;6.378;2023-09-18T12:20:16;46.22;41.22;61.50;;
56099;Laerm;44276;49.534;6.378;2023-09-18T12:22:48;43.59;40.71;59.69;;
56099;Laerm;44276;49.534;6.378;2023-09-18T12:25:19;44.34;40.89;58.78;;
56099;Laerm;44276;49.534;6.378;2023-09-18T12:27:52;45.38;40.43;57.26;;
56099;Laerm;44276;49.534;6.378;2023-09-18T12:30:21;46.76;40.23;65.07;;
56099;Laerm;44276;49.534;6.378;2023-09-18T12:32:52;49.53;40.80;63.88;;
56099;Laerm;44276;49.534;6.378;2023-09-18T12:35:21;53.18;40.43;71.40;;
56099;Laerm;44276;49.534;6.378;2023-09-18T12:37:50;52.48;40.23;64.64;;
56099;Laerm;44276;49.534;6.378;2023-09-18T12:40:27;46.75;40.33;65.77;;
56099;Laerm;44276;49.534;6.378;2023-09-18T12:42:57;45.15;40.80;59.48;;
56099;Laerm;44276;49.534;6.378;2023-09-18T12:45:27;44.19;40.13;55.90;;
56099;Laerm;44276;49.534;6.378;2023-09-18T12:47:57;46.87;40.62;63.90;;
56099;Laerm;44276;49.534;6.378;2023-09-18T12:50:26;45.65;40.03;60.47;;
56099;Laerm;44276;49.534;6.378;2023-09-18T12:53:10;45.30;40.33;61.22;;
56099;Laerm;44276;49.534;6.378;2023-09-18T12:55:41;44.82;40.62;61.19;;
56099;Laerm;44276;49.534;6.378;2023-09-18T12:58:11;44.40;40.13;55.67;;
56099;Laerm;44276;49.534;6.378;2023-09-18T13:00:46;46.99;39.92;61.87;;
56099;Laerm;44276;49.534;6.378;2023-09-18T13:03:16;45.96;40.62;62.97;;
56099;Laerm;44276;49.534;6.378;2023-09-18T13:05:45;44.88;40.13;55.55;;
56099;Laerm;44276;49.534;6.378;2023-09-18T13:08:15;48.84;41.22;62.52;;
56099;Laerm;44276;49.534;6.378;2023-09-18T13:10:50;49.78;41.14;63.95;;
56099;Laerm;44276;49.534;6.378;2023-09-18T13:13:21;47.73;40.89;60.54;;
56099;Laerm;44276;49.534;6.378;2023-09-18T13:15:50;53.26;41.30;70.39;;
56099;Laerm;44276;49.534;6.378;2023-09-18T13:18:22;46.54;39.92;61.30;;
56099;Laerm;44276;49.534;6.378;2023-09-18T13:20:52;44.76;40.43;58.20;;
56099;Laerm;44276;49.534;6.378;2023-09-18T13:23:20;43.36;40.13;48.51;;
56099;Laerm;44276;49.534;6.378;2023-09-18T13:26:01;45.88;38.67;63.15;;
56099;Laerm;44276;49.534;6.378;2023-09-18T13:28:30;44.95;41.30;56.35;;
56099;Laerm;44276;49.534;6.378;2023-09-18T13:31:02;48.87;40.80;64.91;;
56099;Laerm;44276;49.534;6.378;2023-09-18T13:33:32;44.74;40.98;52.84;;
56099;Laerm;44276;49.534;6.378;2023-09-18T13:36:01;48.28;40.33;62.20;;
56099;Laerm;44276;49.534;6.378;2023-09-18T13:38:29;52.03;41.53;68.92;;
56099;Laerm;44276;49.534;6.378;2023-09-18T13:40:57;46.09;40.43;57.18;;
56099;Laerm;44276;49.534;6.378;2023-09-18T13:43:27;45.13;40.80;54.54;;
56099;Laerm;44276;49.534;6.378;2023-09-18T13:45:59;48.39;40.89;61.78;;
56099;Laerm;44276;49.534;6.378;2023-09-18T13:48:31;46.63;40.03;59.87;;
56099;Laerm;44276;49.534;6.378;2023-09-18T13:51:00;47.48;39.21;59.48;;
56099;Laerm;44276;49.534;6.378;2023-09-18T13:53:30;45.22;40.43;57.72;;
56099;Laerm;44276;49.534;6.378;2023-09-18T13:55:58;46.33;42.22;58.82;;
56099;Laerm;44276;49.534;6.378;2023-09-18T13:58:28;44.27;40.03;54.50;;
56099;Laerm;44276;49.534;6.378;2023-09-18T14:00:56;48.82;41.30;63.96;;
56099;Laerm;44276;49.534;6.378;2023-09-18T14:03:24;46.63;40.98;60.11;;